logo
Search for airport 
image banner adimage banner adimage banner ad
image banner ad

SWVG - Riacho Verde

Located in Tauá, Brazil

ICAO - SWVG, IATA -

Data provided by Airmate  

General information

Coordinates: S5°58'15" W40°17'54"
Elevation is 1387 feet MSL.
Magnetic variation is -21° East
View others Airports in Ceará

Operational data

Special qualification required
Current time UTC:
Current local time:
Weather at : - ( 0 km )
METAR: PAPM 131511Z AUTO 35013KT 10SM BKN011 M08/M09 A3018 RMK AO2 FZRANO
View NOTAMs / SUP AIP / TFR affecting this airport [VIEW]
Communications frequencies: [VIEW]

Runways:

Airport contact information

Address: Tauá Brazil

Satellite view of SWVG